Isabel, South Dakota
Current Conditions -  °F | °C
As of 10:52 AM on Tuesday 21 Oct 2014 (Local Time) from KMBG Reporting Station
Clear Clear  
Wind Chill: 69°   Ceiling: Unl
Heat Index: 69°   Visibility: 10mi
Dew Point: 45°   Wind: 18mph
Humidity: 42%   Direction: 160°SSE
Pressure: 29.79"   Gusts: NA
Location:  45.39°N, 101.43°W
Report Text: KMBG 211652Z AUTO 16016KT 10SM CLR 21/07 A2979 RMK AO2 SLP081 T02060072
Loading
Personal Weather Stations






























Interactive Weather Map
Tropical Storm Tracking
New forecast layout! Learn more

10-Day Weather Forecast

Advertisements
Track Severe Weather on mobile